Nibulon 1 — UUAS4 — position and weather

sailwx.info

Track history (hours):
 
Tides and Currents Weather Stations Pressure Air Temp Water Temp Dewpoint Dewpoint Depression Visibility Wind Speed Wind Dir Waves Ship Positions

Nibulon 1

Last reported at 2017-Jun-22 22:30 UTC. Time now 2017-Jun-22 22:29 UTC.
Position N 47°33' E 034°39'.

Length 38 m; draft 2.6 m.

Type: Tug. MMSI: 272641000.

Date/timePositionNaut miles runAvg speedWind from/ knotsBaromVisibWave heightAir tempDewpointWater temp
2017-Jun-22 22:30N 47°33' E 034°39'5 4.8
2017-Jun-22 21:28N 47°35' E 034°32'106 4.0
2017-Jun-21 18:45N 46°34' E 032°25'2 5.5
2017-Jun-21 18:27N 46°33' E 032°23'3 5.7
2017-Jun-21 17:59N 46°33' E 032°19'3 5.6
2017-Jun-21 17:31N 46°33' E 032°15'1 1.2
2017-Jun-21 16:53N 46°33' E 032°14'0 0.1
2017-Jun-21 16:09N 46°33' E 032°14'0 0.1
2017-Jun-21 16:01N 46°33' E 032°14'0 0.1
2017-Jun-21 15:31N 46°33' E 032°14'0 0.1
2017-Jun-21 15:01N 46°33' E 032°14'0 0.0
2017-Jun-21 14:06N 46°33' E 032°14'1 2.0
2017-Jun-21 13:29N 46°33' E 032°12'3 5.3
2017-Jun-21 12:57N 46°32' E 032°09'2 5.3
2017-Jun-21 12:30N 46°32' E 032°05'3 5.2
2017-Jun-21 12:01N 46°32' E 032°02'3 5.2
2017-Jun-21 11:31N 46°33' E 031°58'3 5.2
2017-Jun-21 11:01N 46°34' E 031°54'3 5.3
2017-Jun-21 10:31N 46°35' E 031°51'3 5.2
2017-Jun-21 10:01N 46°35' E 031°47'3 5.2
2017-Jun-21 09:31N 46°35' E 031°43'3 5.1
2017-Jun-21 09:00N 46°35' E 031°40'4 0.8
2017-Jun-21 03:36N 46°37' E 031°34'0 0.5
2017-Jun-21 03:19N 46°37' E 031°34'1 1.6
2017-Jun-21 02:49N 46°36' E 031°34'0 0.3
2017-Jun-21 02:17N 46°36' E 031°35'0 0.0
2017-Jun-21 01:59N 46°36' E 031°35'0 0.0
2017-Jun-21 01:29N 46°36' E 031°35'0 0.0
2017-Jun-21 00:59N 46°36' E 031°35'0 0.0
2017-Jun-21 00:29N 46°36' E 031°35'0 0.0
2017-Jun-20 23:44N 46°36' E 031°35'0 0.0
2017-Jun-20 23:29N 46°36' E 031°35'0 0.0
2017-Jun-20 22:59N 46°36' E 031°35'0 0.0
2017-Jun-20 22:29N 46°36' E 031°35'0 0.0
2017-Jun-20 21:59N 46°36' E 031°35'0 0.0
2017-Jun-20 21:26N 46°36' E 031°35'0 0.0
2017-Jun-20 20:59N 46°36' E 031°35'0 0.0
2017-Jun-20 20:29N 46°36' E 031°35'0 0.0
2017-Jun-20 19:59N 46°36' E 031°35'0 0.2
2017-Jun-20 19:30N 46°36' E 031°35'1 1.1
2017-Jun-20 19:00N 46°36' E 031°35'0 0.3
2017-Jun-20 18:30N 46°37' E 031°35'1 2.9
2017-Jun-20 18:00N 46°35' E 031°34'2 4.3
2017-Jun-20 17:30N 46°35' E 031°31'2 4.2
2017-Jun-20 17:00N 46°36' E 031°28'3 5.0
2017-Jun-20 16:30N 46°35' E 031°25'2 4.9
2017-Jun-20 16:00N 46°35' E 031°21'2 0.1
2017-Jun-20 04:47N 46°35' E 031°19'0 0.0
2017-Jun-20 04:26N 46°35' E 031°19'0 0.6
2017-Jun-20 04:00N 46°35' E 031°19'2 4.2
2017-Jun-20 03:30N 46°35' E 031°22'3 5.1
2017-Jun-20 03:00N 46°35' E 031°26'5 4.6
2017-Jun-20 02:00N 46°35' E 031°33'2 4.1
2017-Jun-20 01:30N 46°36' E 031°35'2 2.6
2017-Jun-20 00:45N 46°35' E 031°38'1 4.5
2017-Jun-20 00:30N 46°35' E 031°40'2 4.5
2017-Jun-20 00:00N 46°35' E 031°43'2 4.6
2017-Jun-19 23:30N 46°36' E 031°46'2 4.7
2017-Jun-19 23:00N 46°36' E 031°49'2 4.8
2017-Jun-19 22:30N 46°37' E 031°53'2 4.8
2017-Jun-19 22:00N 46°39' E 031°55'2 4.8
2017-Jun-19 21:30N 46°41' E 031°56'2 4.9
2017-Jun-19 21:00N 46°43' E 031°56'2 4.9
2017-Jun-19 20:30N 46°45' E 031°53'2 4.9
2017-Jun-19 20:00N 46°48' E 031°53'2 4.7
2017-Jun-19 19:30N 46°50' E 031°55'2 5.0
2017-Jun-19 19:00N 46°51' E 031°57'2 4.9
2017-Jun-19 18:30N 46°53' E 031°60'2 4.8
2017-Jun-19 18:00N 46°55' E 032°01'2 3.7
2017-Jun-19 17:30N 46°57' E 031°59'0 0.2
2017-Jun-19 16:59N 46°57' E 031°59'0 0.0
2017-Jun-19 16:26N 46°57' E 031°59'0 0.0
2017-Jun-19 15:59N 46°57' E 031°59'0 0.0
2017-Jun-19 15:29N 46°57' E 031°59'0 0.0
2017-Jun-19 14:59N 46°57' E 031°59'0 0.1
2017-Jun-19 14:00N 46°57' E 031°59'0 0.0
2017-Jun-19 13:30N 46°57' E 031°59'0 0.1
2017-Jun-19 12:59N 46°57' E 031°59'0 0.0
2017-Jun-19 12:29N 46°57' E 031°59'0 0.0
2017-Jun-19 11:59N 46°57' E 031°59'0 0.0
2017-Jun-19 11:29N 46°57' E 031°59'0 0.0
2017-Jun-19 10:59N 46°57' E 031°59'0 0.0
2017-Jun-19 10:29N 46°57' E 031°59'0 0.0
2017-Jun-19 09:59N 46°57' E 031°59'0 0.0
2017-Jun-19 09:29N 46°57' E 031°59'0 0.0
2017-Jun-19 08:56N 46°57' E 031°59'0 0.0
2017-Jun-19 08:29N 46°57' E 031°59'0 0.0
2017-Jun-19 07:59N 46°57' E 031°59'0 0.1
2017-Jun-19 07:29N 46°57' E 031°59'0 0.0
2017-Jun-19 06:59N 46°57' E 031°59'0 0.0
2017-Jun-19 06:26N 46°57' E 031°59'0 0.0
2017-Jun-19 05:59N 46°57' E 031°59'0 0.0
2017-Jun-19 05:29N 46°57' E 031°59'0 0.0
2017-Jun-19 04:59N 46°57' E 031°59'0 0.0
2017-Jun-19 04:29N 46°57' E 031°59'0 0.0
2017-Jun-19 03:59N 46°57' E 031°59'0 0.0
2017-Jun-19 03:29N 46°57' E 031°59'0 0.0
2017-Jun-19 02:59N 46°57' E 031°59'0 0.0
2017-Jun-19 02:29N 46°57' E 031°59'0 0.0
2017-Jun-19 01:59N 46°57' E 031°59'0 0.0
2017-Jun-19 01:26N 46°57' E 031°59'0 0.0
2017-Jun-19 00:59N 46°57' E 031°59'0 0.0
2017-Jun-19 00:29N 46°57' E 031°59'0 0.0
2017-Jun-18 23:56N 46°57' E 031°59'0 0.0
2017-Jun-18 23:29N 46°57' E 031°59'0 0.2
2017-Jun-18 23:00N 46°56' E 031°59'0 0.6
2017-Jun-18 22:28N 46°56' E 031°59'0 0.4
2017-Jun-18 22:00N 46°57' E 031°59'0 0.4
2017-Jun-18 21:30N 46°56' E 031°59'0 0.4
2017-Jun-18 20:58N 46°57' E 031°59'0 0.0
2017-Jun-18 20:28N 46°57' E 031°59'0 0.0
2017-Jun-18 19:58N 46°57' E 031°59'0 0.0
2017-Jun-18 19:28N 46°57' E 031°59'0 0.0
2017-Jun-18 18:58N 46°57' E 031°59'0 0.0
2017-Jun-18 18:28N 46°57' E 031°59'0 0.0
2017-Jun-18 17:58N 46°57' E 031°59'0 0.0
2017-Jun-18 17:25N 46°57' E 031°59'0 0.0
2017-Jun-18 16:58N 46°57' E 031°59'0 0.0
2017-Jun-18 16:28N 46°57' E 031°59'0 0.0
2017-Jun-18 15:58N 46°57' E 031°59'0 0.0
2017-Jun-18 15:28N 46°57' E 031°59'0 0.0
2017-Jun-18 14:49N 46°57' E 031°59'0 0.0
2017-Jun-18 13:58N 46°57' E 031°59'0 0.0
2017-Jun-18 13:28N 46°57' E 031°59'0 0.0
2017-Jun-18 12:58N 46°57' E 031°59'0 0.0
2017-Jun-18 12:28N 46°57' E 031°59'0 0.0
2017-Jun-18 11:58N 46°57' E 031°59'0 0.0
2017-Jun-18 11:28N 46°57' E 031°59'0 0.0
2017-Jun-18 03:19N 46°57' E 031°59'0 0.0
2017-Jun-18 02:58N 46°57' E 031°59'0 0.0
2017-Jun-18 02:28N 46°57' E 031°59'0 0.0
2017-Jun-18 01:55N 46°57' E 031°59'0 0.0
2017-Jun-18 01:28N 46°57' E 031°59'0 0.0
2017-Jun-18 00:58N 46°57' E 031°59'0 0.0
2017-Jun-18 00:28N 46°57' E 031°59'0 0.0
2017-Jun-17 23:58N 46°57' E 031°59'0 0.0
2017-Jun-17 23:28N 46°57' E 031°59'0 0.0
2017-Jun-17 22:58N 46°57' E 031°59'0 0.0
2017-Jun-17 22:28N 46°57' E 031°59'0 0.0
2017-Jun-17 21:58N 46°57' E 031°59'0 0.0
2017-Jun-17 21:28N 46°57' E 031°59'0 0.0
2017-Jun-17 20:58N 46°57' E 031°59'0 0.0
2017-Jun-17 20:28N 46°57' E 031°59'0 0.0
2017-Jun-17 19:58N 46°57' E 031°59'0 0.0
2017-Jun-17 19:28N 46°57' E 031°59'0 0.0
2017-Jun-17 18:58N 46°57' E 031°59'0 0.0
2017-Jun-17 18:28N 46°57' E 031°59'0 0.5
2017-Jun-17 18:00N 46°56' E 031°59'0 0.1
2017-Jun-17 17:30N 46°57' E 031°59'0 0.5
2017-Jun-17 17:00N 46°57' E 031°59'0 0.0
2017-Jun-17 16:26N 46°57' E 031°59'0 0.0
2017-Jun-17 15:59N 46°57' E 031°59'0 0.0
2017-Jun-17 15:29N 46°57' E 031°59'0 0.0
2017-Jun-17 15:00N 46°57' E 031°59'0 0.0
2017-Jun-17 14:30N 46°57' E 031°59'0 0.2
2017-Jun-17 13:30N 46°57' E 031°59'0 0.0
2017-Jun-17 13:00N 46°57' E 031°59'0 0.0
2017-Jun-17 12:30N 46°57' E 031°59'0 0.0
2017-Jun-17 12:00N 46°57' E 031°59'0 0.0
2017-Jun-17 11:30N 46°57' E 031°59'0 0.0
2017-Jun-17 11:00N 46°57' E 031°59'0 0.0
2017-Jun-17 10:30N 46°57' E 031°59'0 0.0
2017-Jun-17 10:00N 46°57' E 031°59'0 0.0
2017-Jun-17 09:30N 46°57' E 031°59'0 0.0
2017-Jun-17 09:00N 46°57' E 031°59'0 0.0
2017-Jun-17 08:30N 46°57' E 031°59'0 0.0
2017-Jun-17 08:00N 46°57' E 031°59'0 0.0
2017-Jun-17 07:30N 46°57' E 031°59'0 0.0
2017-Jun-17 07:00N 46°57' E 031°59'0 0.0
2017-Jun-17 06:30N 46°57' E 031°59'0 0.0
2017-Jun-17 06:00N 46°57' E 031°59'0 0.0
2017-Jun-17 05:30N 46°57' E 031°59'0 0.0
2017-Jun-17 05:00N 46°57' E 031°59'0 0.0
2017-Jun-17 04:30N 46°57' E 031°59'0 0.0
2017-Jun-17 04:00N 46°57' E 031°59'0 0.0
2017-Jun-17 03:30N 46°57' E 031°59'0 0.0
2017-Jun-17 03:00N 46°57' E 031°59'0 0.0
2017-Jun-17 02:30N 46°57' E 031°59'0 0.0
2017-Jun-17 02:00N 46°57' E 031°59'0 0.0
2017-Jun-17 01:30N 46°57' E 031°59'0 0.0
2017-Jun-17 01:00N 46°57' E 031°59'0 0.0
2017-Jun-17 00:30N 46°57' E 031°59'0 0.0
2017-Jun-17 00:00N 46°57' E 031°59'0 0.0
2017-Jun-16 23:30N 46°57' E 031°59'0 0.0
2017-Jun-16 23:00N 46°57' E 031°59'0 0.0
2017-Jun-16 22:30N 46°57' E 031°59'0 0.0
2017-Jun-16 22:00N 46°57' E 031°59'0 0.0
2017-Jun-16 21:30N 46°57' E 031°59'0 0.0
2017-Jun-16 21:00N 46°57' E 031°59'0 0.0
2017-Jun-16 20:30N 46°57' E 031°59'0 0.0
2017-Jun-16 20:00N 46°57' E 031°59'0 0.0
2017-Jun-16 19:30N 46°57' E 031°59'0 0.0
2017-Jun-16 19:00N 46°57' E 031°59'0 0.0
2017-Jun-16 18:30N 46°57' E 031°59'0 0.0
2017-Jun-16 18:00N 46°57' E 031°59'0 0.7
2017-Jun-16 17:30N 46°56' E 031°59'0 0.6
2017-Jun-16 17:01N 46°57' E 031°59'0 0.6
2017-Jun-16 16:30N 46°57' E 031°59'0 0.7
2017-Jun-16 16:00N 46°56' E 031°59'0 0.7
2017-Jun-16 15:30N 46°57' E 031°59'0 0.7
2017-Jun-16 15:00N 46°56' E 031°59'0 0.1
2017-Jun-16 14:30N 46°56' E 031°59'2 1.9
2017-Jun-16 13:30N 46°55' E 032°01'2 3.6
2017-Jun-16 13:00N 46°53' E 031°60'2 3.5
2017-Jun-16 12:30N 46°52' E 031°58'2 3.6
2017-Jun-16 12:00N 46°51' E 031°56'2 3.6
2017-Jun-16 11:30N 46°49' E 031°55'2 3.5
2017-Jun-16 11:00N 46°48' E 031°53'2 3.5
2017-Jun-16 10:30N 46°46' E 031°53'2 3.5
2017-Jun-16 10:00N 46°45' E 031°54'2 3.5
2017-Jun-16 09:30N 46°43' E 031°56'2 3.5
2017-Jun-16 09:00N 46°42' E 031°56'2 3.5
2017-Jun-16 08:30N 46°40' E 031°56'2 3.5
2017-Jun-16 08:00N 46°38' E 031°57'2 3.3
2017-Jun-16 07:30N 46°37' E 031°58'2 3.4
2017-Jun-16 07:00N 46°36' E 031°60'2 3.4
2017-Jun-16 06:30N 46°34' E 032°02'2 3.4
2017-Jun-16 06:00N 46°33' E 032°03'2 3.3
2017-Jun-16 05:21N 46°32' E 032°05'3 3.6
2017-Jun-16 04:24N 46°32' E 032°10'1 3.5
2017-Jun-16 04:00N 46°33' E 032°12'2 3.5
2017-Jun-16 03:30N 46°33' E 032°15'2 3.7
2017-Jun-16 03:00N 46°33' E 032°17'101 2.2
2017-Jun-14 04:12N 47°30' E 034°20'0 1.1
2017-Jun-14 04:00N 47°30' E 034°20'2 3.0
2017-Jun-14 03:22N 47°32' E 034°20'2 3.5
2017-Jun-14 02:54N 47°33' E 034°22'1 3.4
2017-Jun-14 02:30N 47°33' E 034°24'1 3.0
2017-Jun-14 02:00N 47°33' E 034°26'2 3.4
2017-Jun-14 01:30N 47°34' E 034°28'2 3.5
2017-Jun-14 01:00N 47°35' E 034°31'2 3.5
2017-Jun-14 00:29N 47°34' E 034°33'2 3.4
2017-Jun-14 00:00N 47°34' E 034°35'4 3.5
2017-Jun-13 22:47N 47°32' E 034°41'1 3.5
2017-Jun-13 22:30N 47°32' E 034°43'2 3.4
2017-Jun-13 22:00N 47°31' E 034°45'2 3.4
2017-Jun-13 21:30N 47°31' E 034°48'2 3.6
2017-Jun-13 21:00N 47°32' E 034°50'2 3.5
2017-Jun-13 20:30N 47°33' E 034°53'2 3.9
2017-Jun-13 19:58N 47°33' E 034°56'2 3.7
2017-Jun-13 19:30N 47°33' E 034°58'2 3.8
2017-Jun-13 19:00N 47°34' E 035°01'2 3.6
2017-Jun-13 18:30N 47°35' E 035°03'2 3.7
2017-Jun-13 18:00N 47°37' E 035°03'2 3.9
2017-Jun-13 17:30N 47°38' E 035°06'2 4.0
2017-Jun-13 17:00N 47°40' E 035°07'2 4.1
2017-Jun-13 16:30N 47°42' E 035°08'2 3.6
2017-Jun-13 16:00N 47°43' E 035°09'2 3.6
2017-Jun-13 15:30N 47°45' E 035°10'2 3.8
2017-Jun-13 15:00N 47°47' E 035°10'1 1.4
2017-Jun-13 14:00N 47°49' E 035°09'1 2.0
2017-Jun-13 13:30N 47°49' E 035°08'2 4.8
2017-Jun-13 13:00N 47°51' E 035°05'1 2.6
2017-Jun-13 12:30N 47°52' E 035°06'0 0.1
2017-Jun-13 12:00N 47°52' E 035°06'1 2.1
2017-Jun-13 11:30N 47°53' E 035°06'1 2.0
2017-Jun-13 10:57N 47°52' E 035°05'0 0.9
2017-Jun-13 10:30N 47°52' E 035°05'3 5.9
2017-Jun-13 10:00N 47°49' E 035°08'1 1.7
2017-Jun-13 09:21N 47°49' E 035°09'0 0.0
2017-Jun-13 08:57N 47°49' E 035°09'1 2.8
2017-Jun-13 08:30N 47°49' E 035°08'2 4.3
2017-Jun-13 08:00N 47°51' E 035°05'1 2.0
2017-Jun-13 07:21N 47°52' E 035°06'0 0.2
2017-Jun-13 06:57N 47°52' E 035°06'1 1.6
2017-Jun-13 06:27N 47°53' E 035°06'0 0.4
2017-Jun-13 05:57N 47°53' E 035°06'0 0.0
2017-Jun-13 05:27N 47°53' E 035°06'0 0.1
2017-Jun-13 04:58N 47°53' E 035°06'0 0.5
2017-Jun-13 04:30N 47°53' E 035°06'1 2.8
2017-Jun-13 04:00N 47°54' E 035°07'2 3.7
2017-Jun-13 03:30N 47°56' E 035°07'2 3.6
2017-Jun-13 03:00N 47°58' E 035°07'2 3.7
2017-Jun-13 02:30N 47°60' E 035°08'2 3.6
2017-Jun-13 02:00N 48°01' E 035°08'2 3.5
2017-Jun-13 01:30N 48°03' E 035°07'  
Track history (hours):
 
Tides and Currents Weather Stations Pressure Air Temp Water Temp Dewpoint Dewpoint Depression Visibility Wind Speed Wind Dir Waves Ship Positions

Nibulon 1

Last reported at 2017-Jun-22 22:30 UTC. Time now 2017-Jun-22 22:29 UTC.
Position N 47°33' E 034°39'.

Length 38 m; draft 2.6 m.

Type: Tug. MMSI: 272641000.

Date/timePositionNaut miles runAvg speedWind from/ knotsBaromVisibWave heightAir tempDewpointWater temp
2017-Jun-22 22:30N 47°33' E 034°39'5 4.8
2017-Jun-22 21:28N 47°35' E 034°32'106 4.0
2017-Jun-21 18:45N 46°34' E 032°25'2 5.5
2017-Jun-21 18:27N 46°33' E 032°23'3 5.7
2017-Jun-21 17:59N 46°33' E 032°19'3 5.6
2017-Jun-21 17:31N 46°33' E 032°15'1 1.2
2017-Jun-21 16:53N 46°33' E 032°14'0 0.1
2017-Jun-21 16:09N 46°33' E 032°14'0 0.1
2017-Jun-21 16:01N 46°33' E 032°14'0 0.1
2017-Jun-21 15:31N 46°33' E 032°14'0 0.1
2017-Jun-21 15:01N 46°33' E 032°14'0 0.0
2017-Jun-21 14:06N 46°33' E 032°14'1 2.0
2017-Jun-21 13:29N 46°33' E 032°12'3 5.3
2017-Jun-21 12:57N 46°32' E 032°09'2 5.3
2017-Jun-21 12:30N 46°32' E 032°05'3 5.2
2017-Jun-21 12:01N 46°32' E 032°02'3 5.2
2017-Jun-21 11:31N 46°33' E 031°58'3 5.2
2017-Jun-21 11:01N 46°34' E 031°54'3 5.3
2017-Jun-21 10:31N 46°35' E 031°51'3 5.2
2017-Jun-21 10:01N 46°35' E 031°47'3 5.2
2017-Jun-21 09:31N 46°35' E 031°43'3 5.1
2017-Jun-21 09:00N 46°35' E 031°40'4 0.8
2017-Jun-21 03:36N 46°37' E 031°34'0 0.5
2017-Jun-21 03:19N 46°37' E 031°34'1 1.6
2017-Jun-21 02:49N 46°36' E 031°34'0 0.3
2017-Jun-21 02:17N 46°36' E 031°35'0 0.0
2017-Jun-21 01:59N 46°36' E 031°35'0 0.0
2017-Jun-21 01:29N 46°36' E 031°35'0 0.0
2017-Jun-21 00:59N 46°36' E 031°35'0 0.0
2017-Jun-21 00:29N 46°36' E 031°35'0 0.0
2017-Jun-20 23:44N 46°36' E 031°35'0 0.0
2017-Jun-20 23:29N 46°36' E 031°35'0 0.0
2017-Jun-20 22:59N 46°36' E 031°35'0 0.0
2017-Jun-20 22:29N 46°36' E 031°35'0 0.0
2017-Jun-20 21:59N 46°36' E 031°35'0 0.0
2017-Jun-20 21:26N 46°36' E 031°35'0 0.0
2017-Jun-20 20:59N 46°36' E 031°35'0 0.0
2017-Jun-20 20:29N 46°36' E 031°35'0 0.0
2017-Jun-20 19:59N 46°36' E 031°35'0 0.2
2017-Jun-20 19:30N 46°36' E 031°35'1 1.1
2017-Jun-20 19:00N 46°36' E 031°35'0 0.3
2017-Jun-20 18:30N 46°37' E 031°35'1 2.9
2017-Jun-20 18:00N 46°35' E 031°34'2 4.3
2017-Jun-20 17:30N 46°35' E 031°31'2 4.2
2017-Jun-20 17:00N 46°36' E 031°28'3 5.0
2017-Jun-20 16:30N 46°35' E 031°25'2 4.9
2017-Jun-20 16:00N 46°35' E 031°21'2 0.1
2017-Jun-20 04:47N 46°35' E 031°19'0 0.0
2017-Jun-20 04:26N 46°35' E 031°19'0 0.6
2017-Jun-20 04:00N 46°35' E 031°19'2 4.2
2017-Jun-20 03:30N 46°35' E 031°22'3 5.1
2017-Jun-20 03:00N 46°35' E 031°26'5 4.6
2017-Jun-20 02:00N 46°35' E 031°33'2 4.1
2017-Jun-20 01:30N 46°36' E 031°35'2 2.6
2017-Jun-20 00:45N 46°35' E 031°38'1 4.5
2017-Jun-20 00:30N 46°35' E 031°40'2 4.5
2017-Jun-20 00:00N 46°35' E 031°43'2 4.6
2017-Jun-19 23:30N 46°36' E 031°46'2 4.7
2017-Jun-19 23:00N 46°36' E 031°49'2 4.8
2017-Jun-19 22:30N 46°37' E 031°53'2 4.8
2017-Jun-19 22:00N 46°39' E 031°55'2 4.8
2017-Jun-19 21:30N 46°41' E 031°56'2 4.9
2017-Jun-19 21:00N 46°43' E 031°56'2 4.9
2017-Jun-19 20:30N 46°45' E 031°53'2 4.9
2017-Jun-19 20:00N 46°48' E 031°53'2 4.7
2017-Jun-19 19:30N 46°50' E 031°55'2 5.0
2017-Jun-19 19:00N 46°51' E 031°57'2 4.9
2017-Jun-19 18:30N 46°53' E 031°60'2 4.8
2017-Jun-19 18:00N 46°55' E 032°01'2 3.7
2017-Jun-19 17:30N 46°57' E 031°59'0 0.2
2017-Jun-19 16:59N 46°57' E 031°59'0 0.0
2017-Jun-19 16:26N 46°57' E 031°59'0 0.0
2017-Jun-19 15:59N 46°57' E 031°59'0 0.0
2017-Jun-19 15:29N 46°57' E 031°59'0 0.0
2017-Jun-19 14:59N 46°57' E 031°59'0 0.1
2017-Jun-19 14:00N 46°57' E 031°59'0 0.0
2017-Jun-19 13:30N 46°57' E 031°59'0 0.1
2017-Jun-19 12:59N 46°57' E 031°59'0 0.0
2017-Jun-19 12:29N 46°57' E 031°59'0 0.0
2017-Jun-19 11:59N 46°57' E 031°59'0 0.0
2017-Jun-19 11:29N 46°57' E 031°59'0 0.0
2017-Jun-19 10:59N 46°57' E 031°59'0 0.0
2017-Jun-19 10:29N 46°57' E 031°59'0 0.0
2017-Jun-19 09:59N 46°57' E 031°59'0 0.0
2017-Jun-19 09:29N 46°57' E 031°59'0 0.0
2017-Jun-19 08:56N 46°57' E 031°59'0 0.0
2017-Jun-19 08:29N 46°57' E 031°59'0 0.0
2017-Jun-19 07:59N 46°57' E 031°59'0 0.1
2017-Jun-19 07:29N 46°57' E 031°59'0 0.0
2017-Jun-19 06:59N 46°57' E 031°59'0 0.0
2017-Jun-19 06:26N 46°57' E 031°59'0 0.0
2017-Jun-19 05:59N 46°57' E 031°59'0 0.0
2017-Jun-19 05:29N 46°57' E 031°59'0 0.0
2017-Jun-19 04:59N 46°57' E 031°59'0 0.0
2017-Jun-19 04:29N 46°57' E 031°59'0 0.0
2017-Jun-19 03:59N 46°57' E 031°59'0 0.0
2017-Jun-19 03:29N 46°57' E 031°59'0 0.0
2017-Jun-19 02:59N 46°57' E 031°59'0 0.0
2017-Jun-19 02:29N 46°57' E 031°59'0 0.0
2017-Jun-19 01:59N 46°57' E 031°59'0 0.0
2017-Jun-19 01:26N 46°57' E 031°59'0 0.0
2017-Jun-19 00:59N 46°57' E 031°59'0 0.0
2017-Jun-19 00:29N 46°57' E 031°59'0 0.0
2017-Jun-18 23:56N 46°57' E 031°59'0 0.0
2017-Jun-18 23:29N 46°57' E 031°59'0 0.2
2017-Jun-18 23:00N 46°56' E 031°59'0 0.6
2017-Jun-18 22:28N 46°56' E 031°59'0 0.4
2017-Jun-18 22:00N 46°57' E 031°59'0 0.4
2017-Jun-18 21:30N 46°56' E 031°59'0 0.4
2017-Jun-18 20:58N 46°57' E 031°59'0 0.0
2017-Jun-18 20:28N 46°57' E 031°59'0 0.0
2017-Jun-18 19:58N 46°57' E 031°59'0 0.0
2017-Jun-18 19:28N 46°57' E 031°59'0 0.0
2017-Jun-18 18:58N 46°57' E 031°59'0 0.0
2017-Jun-18 18:28N 46°57' E 031°59'0 0.0
2017-Jun-18 17:58N 46°57' E 031°59'0 0.0
2017-Jun-18 17:25N 46°57' E 031°59'0 0.0
2017-Jun-18 16:58N 46°57' E 031°59'0 0.0
2017-Jun-18 16:28N 46°57' E 031°59'0 0.0
2017-Jun-18 15:58N 46°57' E 031°59'0 0.0
2017-Jun-18 15:28N 46°57' E 031°59'0 0.0
2017-Jun-18 14:49N 46°57' E 031°59'0 0.0
2017-Jun-18 13:58N 46°57' E 031°59'0 0.0
2017-Jun-18 13:28N 46°57' E 031°59'0 0.0
2017-Jun-18 12:58N 46°57' E 031°59'0 0.0
2017-Jun-18 12:28N 46°57' E 031°59'0 0.0
2017-Jun-18 11:58N 46°57' E 031°59'0 0.0
2017-Jun-18 11:28N 46°57' E 031°59'0 0.0
2017-Jun-18 03:19N 46°57' E 031°59'0 0.0
2017-Jun-18 02:58N 46°57' E 031°59'0 0.0
2017-Jun-18 02:28N 46°57' E 031°59'0 0.0
2017-Jun-18 01:55N 46°57' E 031°59'0 0.0
2017-Jun-18 01:28N 46°57' E 031°59'0 0.0
2017-Jun-18 00:58N 46°57' E 031°59'0 0.0
2017-Jun-18 00:28N 46°57' E 031°59'0 0.0
2017-Jun-17 23:58N 46°57' E 031°59'0 0.0
2017-Jun-17 23:28N 46°57' E 031°59'0 0.0
2017-Jun-17 22:58N 46°57' E 031°59'0 0.0
2017-Jun-17 22:28N 46°57' E 031°59'0 0.0
2017-Jun-17 21:58N 46°57' E 031°59'0 0.0
2017-Jun-17 21:28N 46°57' E 031°59'0 0.0
2017-Jun-17 20:58N 46°57' E 031°59'0 0.0
2017-Jun-17 20:28N 46°57' E 031°59'0 0.0
2017-Jun-17 19:58N 46°57' E 031°59'0 0.0
2017-Jun-17 19:28N 46°57' E 031°59'0 0.0
2017-Jun-17 18:58N 46°57' E 031°59'0 0.0
2017-Jun-17 18:28N 46°57' E 031°59'0 0.5
2017-Jun-17 18:00N 46°56' E 031°59'0 0.1
2017-Jun-17 17:30N 46°57' E 031°59'0 0.5
2017-Jun-17 17:00N 46°57' E 031°59'0 0.0
2017-Jun-17 16:26N 46°57' E 031°59'0 0.0
2017-Jun-17 15:59N 46°57' E 031°59'0 0.0
2017-Jun-17 15:29N 46°57' E 031°59'0 0.0
2017-Jun-17 15:00N 46°57' E 031°59'0 0.0
2017-Jun-17 14:30N 46°57' E 031°59'0 0.2
2017-Jun-17 13:30N 46°57' E 031°59'0 0.0
2017-Jun-17 13:00N 46°57' E 031°59'0 0.0
2017-Jun-17 12:30N 46°57' E 031°59'0 0.0
2017-Jun-17 12:00N 46°57' E 031°59'0 0.0
2017-Jun-17 11:30N 46°57' E 031°59'0 0.0
2017-Jun-17 11:00N 46°57' E 031°59'0 0.0
2017-Jun-17 10:30N 46°57' E 031°59'0 0.0
2017-Jun-17 10:00N 46°57' E 031°59'0 0.0
2017-Jun-17 09:30N 46°57' E 031°59'0 0.0
2017-Jun-17 09:00N 46°57' E 031°59'0 0.0
2017-Jun-17 08:30N 46°57' E 031°59'0 0.0
2017-Jun-17 08:00N 46°57' E 031°59'0 0.0
2017-Jun-17 07:30N 46°57' E 031°59'0 0.0
2017-Jun-17 07:00N 46°57' E 031°59'0 0.0
2017-Jun-17 06:30N 46°57' E 031°59'0 0.0
2017-Jun-17 06:00N 46°57' E 031°59'0 0.0
2017-Jun-17 05:30N 46°57' E 031°59'0 0.0
2017-Jun-17 05:00N 46°57' E 031°59'0 0.0
2017-Jun-17 04:30N 46°57' E 031°59'0 0.0
2017-Jun-17 04:00N 46°57' E 031°59'0 0.0
2017-Jun-17 03:30N 46°57' E 031°59'0 0.0
2017-Jun-17 03:00N 46°57' E 031°59'0 0.0
2017-Jun-17 02:30N 46°57' E 031°59'0 0.0
2017-Jun-17 02:00N 46°57' E 031°59'0 0.0
2017-Jun-17 01:30N 46°57' E 031°59'0 0.0
2017-Jun-17 01:00N 46°57' E 031°59'0 0.0
2017-Jun-17 00:30N 46°57' E 031°59'0 0.0
2017-Jun-17 00:00N 46°57' E 031°59'0 0.0
2017-Jun-16 23:30N 46°57' E 031°59'0 0.0
2017-Jun-16 23:00N 46°57' E 031°59'0 0.0
2017-Jun-16 22:30N 46°57' E 031°59'0 0.0
2017-Jun-16 22:00N 46°57' E 031°59'0 0.0
2017-Jun-16 21:30N 46°57' E 031°59'0 0.0
2017-Jun-16 21:00N 46°57' E 031°59'0 0.0
2017-Jun-16 20:30N 46°57' E 031°59'0 0.0
2017-Jun-16 20:00N 46°57' E 031°59'0 0.0
2017-Jun-16 19:30N 46°57' E 031°59'0 0.0
2017-Jun-16 19:00N 46°57' E 031°59'0 0.0
2017-Jun-16 18:30N 46°57' E 031°59'0 0.0
2017-Jun-16 18:00N 46°57' E 031°59'0 0.7
2017-Jun-16 17:30N 46°56' E 031°59'0 0.6
2017-Jun-16 17:01N 46°57' E 031°59'0 0.6
2017-Jun-16 16:30N 46°57' E 031°59'0 0.7
2017-Jun-16 16:00N 46°56' E 031°59'0 0.7
2017-Jun-16 15:30N 46°57' E 031°59'0 0.7
2017-Jun-16 15:00N 46°56' E 031°59'0 0.1
2017-Jun-16 14:30N 46°56' E 031°59'2 1.9
2017-Jun-16 13:30N 46°55' E 032°01'2 3.6
2017-Jun-16 13:00N 46°53' E 031°60'2 3.5
2017-Jun-16 12:30N 46°52' E 031°58'2 3.6
2017-Jun-16 12:00N 46°51' E 031°56'2 3.6
2017-Jun-16 11:30N 46°49' E 031°55'2 3.5
2017-Jun-16 11:00N 46°48' E 031°53'2 3.5
2017-Jun-16 10:30N 46°46' E 031°53'2 3.5
2017-Jun-16 10:00N 46°45' E 031°54'2 3.5
2017-Jun-16 09:30N 46°43' E 031°56'2 3.5
2017-Jun-16 09:00N 46°42' E 031°56'2 3.5
2017-Jun-16 08:30N 46°40' E 031°56'2 3.5
2017-Jun-16 08:00N 46°38' E 031°57'2 3.3
2017-Jun-16 07:30N 46°37' E 031°58'2 3.4
2017-Jun-16 07:00N 46°36' E 031°60'2 3.4
2017-Jun-16 06:30N 46°34' E 032°02'2 3.4
2017-Jun-16 06:00N 46°33' E 032°03'2 3.3
2017-Jun-16 05:21N 46°32' E 032°05'3 3.6
2017-Jun-16 04:24N 46°32' E 032°10'1 3.5
2017-Jun-16 04:00N 46°33' E 032°12'2 3.5
2017-Jun-16 03:30N 46°33' E 032°15'2 3.7
2017-Jun-16 03:00N 46°33' E 032°17'101 2.2
2017-Jun-14 04:12N 47°30' E 034°20'0 1.1
2017-Jun-14 04:00N 47°30' E 034°20'2 3.0
2017-Jun-14 03:22N 47°32' E 034°20'2 3.5
2017-Jun-14 02:54N 47°33' E 034°22'1 3.4
2017-Jun-14 02:30N 47°33' E 034°24'1 3.0
2017-Jun-14 02:00N 47°33' E 034°26'2 3.4
2017-Jun-14 01:30N 47°34' E 034°28'2 3.5
2017-Jun-14 01:00N 47°35' E 034°31'2 3.5
2017-Jun-14 00:29N 47°34' E 034°33'2 3.4
2017-Jun-14 00:00N 47°34' E 034°35'4 3.5
2017-Jun-13 22:47N 47°32' E 034°41'1 3.5
2017-Jun-13 22:30N 47°32' E 034°43'2 3.4
2017-Jun-13 22:00N 47°31' E 034°45'2 3.4
2017-Jun-13 21:30N 47°31' E 034°48'2 3.6
2017-Jun-13 21:00N 47°32' E 034°50'2 3.5
2017-Jun-13 20:30N 47°33' E 034°53'2 3.9
2017-Jun-13 19:58N 47°33' E 034°56'2 3.7
2017-Jun-13 19:30N 47°33' E 034°58'2 3.8
2017-Jun-13 19:00N 47°34' E 035°01'2 3.6
2017-Jun-13 18:30N 47°35' E 035°03'2 3.7
2017-Jun-13 18:00N 47°37' E 035°03'2 3.9
2017-Jun-13 17:30N 47°38' E 035°06'2 4.0
2017-Jun-13 17:00N 47°40' E 035°07'2 4.1
2017-Jun-13 16:30N 47°42' E 035°08'2 3.6
2017-Jun-13 16:00N 47°43' E 035°09'2 3.6
2017-Jun-13 15:30N 47°45' E 035°10'2 3.8
2017-Jun-13 15:00N 47°47' E 035°10'1 1.4
2017-Jun-13 14:00N 47°49' E 035°09'1 2.0
2017-Jun-13 13:30N 47°49' E 035°08'2 4.8
2017-Jun-13 13:00N 47°51' E 035°05'1 2.6
2017-Jun-13 12:30N 47°52' E 035°06'0 0.1
2017-Jun-13 12:00N 47°52' E 035°06'1 2.1
2017-Jun-13 11:30N 47°53' E 035°06'1 2.0
2017-Jun-13 10:57N 47°52' E 035°05'0 0.9
2017-Jun-13 10:30N 47°52' E 035°05'3 5.9
2017-Jun-13 10:00N 47°49' E 035°08'1 1.7
2017-Jun-13 09:21N 47°49' E 035°09'0 0.0
2017-Jun-13 08:57N 47°49' E 035°09'1 2.8
2017-Jun-13 08:30N 47°49' E 035°08'2 4.3
2017-Jun-13 08:00N 47°51' E 035°05'1 2.0
2017-Jun-13 07:21N 47°52' E 035°06'0 0.2
2017-Jun-13 06:57N 47°52' E 035°06'1 1.6
2017-Jun-13 06:27N 47°53' E 035°06'0 0.4
2017-Jun-13 05:57N 47°53' E 035°06'0 0.0
2017-Jun-13 05:27N 47°53' E 035°06'0 0.1
2017-Jun-13 04:58N 47°53' E 035°06'0 0.5
2017-Jun-13 04:30N 47°53' E 035°06'1 2.8
2017-Jun-13 04:00N 47°54' E 035°07'2 3.7
2017-Jun-13 03:30N 47°56' E 035°07'2 3.6
2017-Jun-13 03:00N 47°58' E 035°07'2 3.7
2017-Jun-13 02:30N 47°60' E 035°08'2 3.6
2017-Jun-13 02:00N 48°01' E 035°08'2 3.5
2017-Jun-13 01:30N 48°03' E 035°07'  

Dump ship's entire track history